Check out our new BloomSky Weather System.

Active alerts


No alerts


Thunder radar  blitzortung!


Rain radar more information rain snow radar


Visit our other weather sites:

Template documentation
and downloads

And another site



Weather Underground History page Text

Daily Summary for March 25, 2017 Units:  Metric    English   Both
« Previous Day
Next Day »
Daily Weekly Monthly Yearly Custom
  High: Low: Average:
Temperature: 27.1 °C 15.6 °C 21.9 °C
Dew Point: 21.3 °C 11.4 °C 15.3 °C
Humidity: 96 % 39 % 69 %
Wind Speed: 17.7 km/h 0 km/h 3.7 km/h
Wind Gust: 24.1 km/h - -
Wind:- - WSW
Pressure: 1016.8 hPa 1012.4 hPa -
Precipitation: 2.29 mm    
Historical Graphs
 
 
Tabular Data for March 25, 2017
Time Temperature Dew Point Pressure Wind Wind Speed Wind Gust Humidity Rainfall Rate (Hourly)
00:03 20.9 °C 19.7 °C 1013.4 hPa South 6.4 km/h 16.1 km/h 93 % 0 mm
00:08 20.8 °C 19.6 °C 1013.1 hPa SSE 4.8 km/h 16.1 km/h 93 % 0 mm
00:13 20.7 °C 19.4 °C 1013.4 hPa SSW 4.8 km/h 12.9 km/h 92 % 0 mm
00:24 20.3 °C 18.6 °C 1013.4 hPa WSW 4.8 km/h 12.9 km/h 90 % 0 mm
00:29 20.2 °C 18.1 °C 1013.4 hPa SSE 4.8 km/h 12.9 km/h 88 % 0 mm
00:34 20 °C 17.6 °C 1013.4 hPa SE 4.8 km/h 11.3 km/h 86 % 0 mm
00:39 20 °C 17.4 °C 1013.4 hPa South 6.4 km/h 11.3 km/h 85 % 0 mm
00:44 19.9 °C 17.1 °C 1013.4 hPa SSW 4.8 km/h 11.3 km/h 84 % 0 mm
00:49 19.7 °C 16.9 °C 1013.4 hPa South 3.2 km/h 11.3 km/h 84 % 0 mm
00:54 19.6 °C 16.8 °C 1013.4 hPa SSW 3.2 km/h 9.7 km/h 84 % 0 mm
00:59 19.4 °C 16.6 °C 1013.1 hPa SSE 1.6 km/h 8 km/h 84 % 0 mm
01:04 19.3 °C 16.3 °C 1013.4 hPa SSE 3.2 km/h 6.4 km/h 83 % 0 mm
01:09 19.2 °C 16.2 °C 1013.4 hPa SE 4.8 km/h 6.4 km/h 83 % 0 mm
01:14 19.2 °C 16.1 °C 1013.4 hPa SSE 1.6 km/h 6.4 km/h 82 % 0 mm
01:19 19.2 °C 16.2 °C 1013.4 hPa SSE 3.2 km/h 6.4 km/h 83 % 0 mm
01:24 19.3 °C 16.5 °C 1013.4 hPa SSW 6.4 km/h 6.4 km/h 84 % 0 mm
01:29 19.4 °C 17 °C 1013.4 hPa SSW 3.2 km/h 8 km/h 86 % 0 mm
01:34 19.7 °C 17.7 °C 1013.4 hPa SSE 6.4 km/h 8 km/h 88 % 0 mm
01:39 20 °C 18.5 °C 1013.4 hPa SE 8 km/h 9.7 km/h 91 % 0 mm
01:44 20.5 °C 19.3 °C 1013.4 hPa South 6.4 km/h 11.3 km/h 93 % 0 mm
01:49 20.9 °C 19.7 °C 1013.4 hPa South 12.9 km/h 14.5 km/h 93 % 0 mm
01:54 21.3 °C 20.3 °C 1013.4 hPa South 4.8 km/h 17.7 km/h 94 % 0 mm
01:59 21.4 °C 20.4 °C 1013.4 hPa South 11.3 km/h 19.3 km/h 94 % 0 mm
02:04 21.6 °C 20.6 °C 1013.4 hPa South 6.4 km/h 19.3 km/h 94 % 0 mm
02:09 21.7 °C 20.7 °C 1013.1 hPa South 11.3 km/h 19.3 km/h 94 % 0 mm
02:14 21.8 °C 20.8 °C 1013.1 hPa SSW 8 km/h 17.7 km/h 94 % 0 mm
02:19 21.8 °C 20.8 °C 1013.4 hPa SSE 17.7 km/h 20.9 km/h 94 % 0 mm
02:24 21.8 °C 20.8 °C 1013.1 hPa SW 9.7 km/h 24.1 km/h 94 % 0 mm
02:29 21.8 °C 20.8 °C 1013.1 hPa SW 8 km/h 24.1 km/h 94 % 0 mm
02:34 21.8 °C 20.8 °C 1013.1 hPa South 6.4 km/h 24.1 km/h 94 % 0 mm
02:39 21.8 °C 20.8 °C 1013.1 hPa South 12.9 km/h 19.3 km/h 94 % 0 mm
02:44 21.8 °C 20.8 °C 1013.1 hPa SSE 3.2 km/h 19.3 km/h 94 % 0 mm
02:49 21.8 °C 21 °C 1013.1 hPa South 17.7 km/h 17.7 km/h 95 % 0 mm
02:54 21.9 °C 21.1 °C 1013.1 hPa South 9.7 km/h 17.7 km/h 95 % 0 mm
02:59 21.9 °C 21.1 °C 1013.1 hPa SSW 8 km/h 17.7 km/h 95 % 0 mm
03:04 21.9 °C 21.1 °C 1013.1 hPa South 8 km/h 17.7 km/h 95 % 0 mm
03:09 21.9 °C 21.1 °C 1013.1 hPa SW 9.7 km/h 17.7 km/h 95 % 0 mm
03:14 21.9 °C 21.1 °C 1013.1 hPa South 4.8 km/h 17.7 km/h 95 % 0 mm
03:19 22 °C 21.2 °C 1013.1 hPa SSE 6.4 km/h 17.7 km/h 95 % 0 mm
03:24 22 °C 21.2 °C 1013.1 hPa South 8 km/h 17.7 km/h 95 % 0 mm
03:29 22 °C 21 °C 1013.1 hPa SSW 6.4 km/h 20.9 km/h 94 % 0 mm
03:35 22 °C 21.2 °C 1012.8 hPa South 8 km/h 20.9 km/h 95 % 0 mm
03:40 22 °C 21.2 °C 1013.1 hPa SSW 3.2 km/h 20.9 km/h 95 % 0 mm
03:45 22 °C 21.2 °C 1012.8 hPa South 3.2 km/h 14.5 km/h 95 % 0 mm
03:50 22 °C 21.2 °C 1012.8 hPa South 6.4 km/h 17.7 km/h 95 % 0 mm
03:55 22 °C 21.2 °C 1012.8 hPa SSW 8 km/h 17.7 km/h 95 % 0 mm
04:00 22 °C 21.2 °C 1012.8 hPa SSE 4.8 km/h 17.7 km/h 95 % 0 mm
04:05 22 °C 21.2 °C 1012.8 hPa South 8 km/h 20.9 km/h 95 % 0 mm
04:10 22 °C 21.2 °C 1012.8 hPa SW 9.7 km/h 20.9 km/h 95 % 0 mm
04:15 22 °C 21.2 °C 1012.8 hPa SSW 11.3 km/h 20.9 km/h 95 % 0 mm
04:20 22.1 °C 21.3 °C 1013.1 hPa South 3.2 km/h 14.5 km/h 95 % 0 mm
04:25 22.1 °C 21.3 °C 1013.1 hPa SSW 4.8 km/h 17.7 km/h 95 % 0 mm
04:30 22.1 °C 21.1 °C 1013.1 hPa SSW 8 km/h 17.7 km/h 94 % 0 mm
04:35 22.1 °C 21.1 °C 1013.1 hPa SSE 9.7 km/h 17.7 km/h 94 % 0 mm
04:40 22.2 °C 21.2 °C 1013.1 hPa SSW 11.3 km/h 17.7 km/h 94 % 0 mm
04:50 22.2 °C 21.2 °C 1012.8 hPa SSW 8 km/h 17.7 km/h 94 % 0 mm
04:55 22.2 °C 21.2 °C 1012.8 hPa SSW 6.4 km/h 19.3 km/h 94 % 0 mm
05:00 22.3 °C 21.1 °C 1012.8 hPa South 6.4 km/h 19.3 km/h 93 % 0 mm
05:05 22.3 °C 21.1 °C 1013.1 hPa South 12.9 km/h 19.3 km/h 93 % 0 mm
05:10 22.3 °C 21.1 °C 1013.1 hPa Calm   16.1 km/h 93 % 0 mm
05:15 22.3 °C 21.1 °C 1013.1 hPa SSW 6.4 km/h 22.5 km/h 93 % 0 mm
05:20 22.3 °C 21.1 °C 1013.1 hPa SW 8 km/h 22.5 km/h 93 % 0 mm
05:25 22.4 °C 21 °C 1012.8 hPa SW 3.2 km/h 22.5 km/h 92 % 0 mm
05:30 22.4 °C 21 °C 1012.8 hPa South 1.6 km/h 16.1 km/h 92 % 0 mm
05:35 22.4 °C 21 °C 1013.1 hPa SSW 6.4 km/h 16.1 km/h 92 % 0 mm
05:40 22.4 °C 21 °C 1013.4 hPa West 4.8 km/h 14.5 km/h 92 % 0 mm
05:45 22.4 °C 21 °C 1013.4 hPa WSW 9.7 km/h 14.5 km/h 92 % 2.03 mm
05:50 22.3 °C 21.1 °C 1013.8 hPa WSW 4.8 km/h 16.1 km/h 93 % 2.29 mm
05:55 22.2 °C 21 °C 1013.8 hPa WSW 4.8 km/h 16.1 km/h 93 % 2.29 mm
06:00 22.1 °C 21.1 °C 1013.8 hPa WSW 4.8 km/h 16.1 km/h 94 % 2.29 mm
06:05 22 °C 21 °C 1013.8 hPa West 6.4 km/h 16.1 km/h 94 % 2.29 mm
06:10 21.9 °C 20.9 °C 1013.8 hPa SW 4.8 km/h 12.9 km/h 94 % 2.29 mm
06:15 21.9 °C 20.9 °C 1013.8 hPa WSW 3.2 km/h 12.9 km/h 94 % 2.29 mm
06:20 21.8 °C 20.8 °C 1014.1 hPa NW 4.8 km/h 11.3 km/h 94 % 2.29 mm
06:21 21.8 °C 21 °C 1014.1 hPa NW 3.2 km/h 11.3 km/h 95 % 2.29 mm
06:26 21.7 °C 20.9 °C 1014.1 hPa SSW 3.2 km/h 11.3 km/h 95 % 2.29 mm
06:31 21.7 °C 20.9 °C 1014.1 hPa SSW 1.6 km/h 12.9 km/h 95 % 2.29 mm
06:36 21.7 °C 20.9 °C 1014.1 hPa SSW 3.2 km/h 12.9 km/h 95 % 2.29 mm
06:41 21.6 °C 20.8 °C 1014.4 hPa WNW 3.2 km/h 12.9 km/h 95 % 2.29 mm
06:46 21.6 °C 20.8 °C 1014.1 hPa WSW 1.6 km/h 8 km/h 95 % 0.25 mm
06:51 21.4 °C 20.6 °C 1014.4 hPa WSW 1.6 km/h 6.4 km/h 95 % 0 mm
06:56 21.3 °C 20.5 °C 1014.4 hPa Calm   6.4 km/h 95 % 0 mm
07:01 21.3 °C 20.5 °C 1014.4 hPa Calm   6.4 km/h 95 % 0 mm
07:06 21.2 °C 20.4 °C 1014.4 hPa West 1.6 km/h 6.4 km/h 95 % 0 mm
07:11 21.2 °C 20.4 °C 1014.4 hPa West 3.2 km/h 6.4 km/h 95 % 0 mm
07:16 21.1 °C 20.4 °C 1014.4 hPa North 1.6 km/h 8 km/h 96 % 0 mm
07:21 21.1 °C 20.3 °C 1014.8 hPa NW 3.2 km/h 8 km/h 95 % 0 mm
07:26 20.7 °C 19.5 °C 1014.8 hPa WNW 4.8 km/h 16.1 km/h 93 % 0 mm
07:31 20.4 °C 19.1 °C 1014.8 hPa NW 6.4 km/h 16.1 km/h 92 % 0 mm
07:36 20.3 °C 19.1 °C 1015.1 hPa WSW 1.6 km/h 16.1 km/h 93 % 0 mm
07:38 20.3 °C 19.1 °C 1015.1 hPa NNW 1.6 km/h 16.1 km/h 93 % 0 mm
07:43 20.2 °C 18.9 °C 1015.1 hPa NW 4.8 km/h 16.1 km/h 92 % 0 mm
07:48 19.9 °C 18.4 °C 1015.1 hPa West 4.8 km/h 12.9 km/h 91 % 0 mm
07:53 19.4 °C 16.8 °C 1015.1 hPa NNW 3.2 km/h 12.9 km/h 85 % 0 mm
07:58 19.3 °C 16.1 °C 1015.5 hPa NNW 8 km/h 12.9 km/h 82 % 0 mm
08:03 19.2 °C 15.7 °C 1015.5 hPa NW 8 km/h 11.3 km/h 80 % 0 mm
08:08 19.2 °C 15.7 °C 1015.5 hPa WNW 3.2 km/h 12.9 km/h 80 % 0 mm
08:13 19.1 °C 15.6 °C 1015.5 hPa WNW 1.6 km/h 12.9 km/h 80 % 0 mm
08:18 18.9 °C 15.2 °C 1015.5 hPa NW 4.8 km/h 12.9 km/h 79 % 0 mm
08:23 18.9 °C 15.2 °C 1015.8 hPa NNW 6.4 km/h 12.9 km/h 79 % 0 mm
08:28 18.9 °C 15 °C 1015.8 hPa WNW 3.2 km/h 12.9 km/h 78 % 0 mm
08:33 18.9 °C 15 °C 1016.1 hPa NNW 4.8 km/h 12.9 km/h 78 % 0 mm
08:38 18.9 °C 15.2 °C 1016.1 hPa NNW 4.8 km/h 12.9 km/h 79 % 0 mm
08:48 18.9 °C 14.8 °C 1016.1 hPa NNW 3.2 km/h 11.3 km/h 77 % 0 mm
08:53 18.9 °C 14.6 °C 1016.1 hPa NNW 6.4 km/h 11.3 km/h 76 % 0 mm
08:58 19.1 °C 14.8 °C 1016.5 hPa NW 3.2 km/h 11.3 km/h 76 % 0 mm
09:03 19.2 °C 14.2 °C 1016.5 hPa NNW 3.2 km/h 11.3 km/h 73 % 0 mm
09:08 19.2 °C 14.2 °C 1016.5 hPa NW 3.2 km/h 11.3 km/h 73 % 0 mm
09:13 19.3 °C 14.3 °C 1016.5 hPa NW 4.8 km/h 11.3 km/h 73 % 0 mm
09:18 19.3 °C 14.3 °C 1016.5 hPa NW 4.8 km/h 17.7 km/h 73 % 0 mm
09:23 19.3 °C 13.5 °C 1016.5 hPa NW 3.2 km/h 17.7 km/h 69 % 0 mm
09:28 19.5 °C 13.7 °C 1016.5 hPa WNW 6.4 km/h 17.7 km/h 69 % 0 mm
09:33 19.5 °C 13 °C 1016.5 hPa WNW 6.4 km/h 12.9 km/h 66 % 0 mm
09:38 19.5 °C 12 °C 1016.8 hPa NNW 8 km/h 12.9 km/h 62 % 0 mm
09:48 19.6 °C 11.9 °C 1016.8 hPa North 4.8 km/h 12.9 km/h 61 % 0 mm
09:53 19.6 °C 11.6 °C 1016.8 hPa NE 8 km/h 12.9 km/h 60 % 0 mm
09:58 19.6 °C 11.6 °C 1016.8 hPa NNE 6.4 km/h 17.7 km/h 60 % 0 mm
10:03 19.7 °C 11.5 °C 1016.8 hPa West 14.5 km/h 19.3 km/h 59 % 0 mm
10:08 19.6 °C 11.4 °C 1016.8 hPa NW 8 km/h 19.3 km/h 59 % 0 mm
10:10 19.6 °C 11.6 °C 1016.8 hPa NNW 6.4 km/h 19.3 km/h 60 % 0 mm
10:15 19.6 °C 11.6 °C 1016.5 hPa NNW 4.8 km/h 19.3 km/h 60 % 0 mm
10:20 19.5 °C 11.8 °C 1016.8 hPa NW 9.7 km/h 16.1 km/h 61 % 0 mm
10:25 19.7 °C 12.2 °C 1016.5 hPa West 8 km/h 16.1 km/h 62 % 0 mm
10:30 19.9 °C 12.2 °C 1016.8 hPa NNE 3.2 km/h 14.5 km/h 61 % 0 mm
10:35 19.9 °C 12.2 °C 1016.8 hPa NW 4.8 km/h 14.5 km/h 61 % 0 mm
10:40 20.1 °C 12.3 °C 1016.5 hPa NW 4.8 km/h 14.5 km/h 61 % 0 mm
10:45 20.1 °C 12.3 °C 1016.5 hPa South 1.6 km/h 19.3 km/h 61 % 0 mm
10:50 20.5 °C 12.7 °C 1016.5 hPa WNW 6.4 km/h 19.3 km/h 61 % 0 mm
10:55 20.7 °C 12.7 °C 1016.5 hPa NW 1.6 km/h 19.3 km/h 60 % 0 mm
11:00 20.7 °C 12.4 °C 1016.5 hPa WNW 3.2 km/h 14.5 km/h 59 % 0 mm
11:05 20.9 °C 12.6 °C 1016.5 hPa West 1.6 km/h 14.5 km/h 59 % 0 mm
11:10 21.1 °C 13.5 °C 1016.5 hPa West 6.4 km/h 12.9 km/h 62 % 0 mm
11:15 21.3 °C 12.7 °C 1016.8 hPa SSW 1.6 km/h 12.9 km/h 58 % 0 mm
11:20 21.7 °C 12.8 °C 1016.8 hPa NW 3.2 km/h 12.9 km/h 57 % 0 mm
11:25 21.8 °C 12.1 °C 1016.8 hPa WNW 8 km/h 14.5 km/h 54 % 0 mm
11:30 21.7 °C 12.8 °C 1016.8 hPa NW 1.6 km/h 14.5 km/h 57 % 0 mm
11:35 22 °C 12.8 °C 1016.8 hPa West 3.2 km/h 14.5 km/h 56 % 0 mm
11:40 22.2 °C 13 °C 1016.8 hPa North 3.2 km/h 12.9 km/h 56 % 0 mm
11:45 22 °C 12 °C 1016.8 hPa NNW 6.4 km/h 16.1 km/h 53 % 0 mm
11:50 22.1 °C 12.4 °C 1016.8 hPa NW 4.8 km/h 16.1 km/h 54 % 0 mm
11:55 21.9 °C 12.7 °C 1016.8 hPa Calm   16.1 km/h 56 % 0 mm
12:00 22.1 °C 12.4 °C 1016.8 hPa WNW 6.4 km/h 14.5 km/h 54 % 0 mm
12:05 22.3 °C 12.3 °C 1016.8 hPa West 4.8 km/h 14.5 km/h 53 % 0 mm
12:15 23 °C 12.6 °C 1016.5 hPa North 3.2 km/h 14.5 km/h 52 % 0 mm
12:20 23.2 °C 13.1 °C 1016.5 hPa WNW 4.8 km/h 14.5 km/h 53 % 0 mm
12:25 23.3 °C 13.5 °C 1016.5 hPa NW 4.8 km/h 14.5 km/h 54 % 0 mm
12:30 23.2 °C 12.2 °C 1016.5 hPa NW 4.8 km/h 14.5 km/h 50 % 0 mm
12:35 23.4 °C 12.7 °C 1016.5 hPa SW 4.8 km/h 14.5 km/h 51 % 0 mm
12:40 23.8 °C 12.8 °C 1016.5 hPa NW 8 km/h 12.9 km/h 50 % 0 mm
12:46 23.4 °C 12.1 °C 1016.5 hPa Calm   11.3 km/h 49 % 0 mm
12:51 23.6 °C 12.9 °C 1016.5 hPa NNW 9.7 km/h 11.3 km/h 51 % 0 mm
12:56 23.6 °C 11.9 °C 1016.1 hPa SW 1.6 km/h 11.3 km/h 48 % 0 mm
13:01 23.8 °C 12.8 °C 1016.1 hPa WSW 1.6 km/h 12.9 km/h 50 % 0 mm
13:06 24.1 °C 12.7 °C 1016.1 hPa SW 1.6 km/h 12.9 km/h 49 % 0 mm
13:11 24.6 °C 13.8 °C 1016.1 hPa WSW 3.2 km/h 12.9 km/h 51 % 0 mm
13:16 24.8 °C 13.7 °C 1016.1 hPa WSW 4.8 km/h 12.9 km/h 50 % 0 mm
13:21 24.8 °C 12.1 °C 1016.1 hPa NW 6.4 km/h 11.3 km/h 45 % 0 mm
13:26 24.3 °C 12.6 °C 1015.8 hPa SSE 1.6 km/h 12.9 km/h 48 % 0 mm
13:31 24.5 °C 12.8 °C 1015.8 hPa SW 4.8 km/h 12.9 km/h 48 % 0 mm
13:36 25 °C 13.2 °C 1015.8 hPa SSW 4.8 km/h 12.9 km/h 48 % 0 mm
13:41 25.3 °C 13.5 °C 1015.8 hPa NE 1.6 km/h 9.7 km/h 48 % 0 mm
13:46 25.6 °C 14.4 °C 1015.5 hPa SW 6.4 km/h 9.7 km/h 50 % 0 mm
13:51 25.7 °C 12.5 °C 1015.5 hPa NW 1.6 km/h 9.7 km/h 44 % 0 mm
13:56 25.8 °C 13.3 °C 1015.5 hPa West 4.8 km/h 9.7 km/h 46 % 0 mm
14:01 25.5 °C 12 °C 1015.5 hPa NNW 8 km/h 11.3 km/h 43 % 0 mm
14:06 25.1 °C 13.3 °C 1015.1 hPa SE 3.2 km/h 11.3 km/h 48 % 0 mm
14:11 25.4 °C 14.2 °C 1015.1 hPa WNW 1.6 km/h 11.3 km/h 50 % 0 mm
14:16 25.4 °C 13.6 °C 1015.1 hPa WNW 4.8 km/h 14.5 km/h 48 % 0 mm
14:21 25.6 °C 14.1 °C 1014.8 hPa WNW 3.2 km/h 14.5 km/h 49 % 0 mm
14:26 25.8 °C 13.3 °C 1014.8 hPa SSW 3.2 km/h 14.5 km/h 46 % 0 mm
14:31 26.2 °C 13.7 °C 1014.8 hPa SSW 1.6 km/h 9.7 km/h 46 % 0 mm
14:36 26.3 °C 13.1 °C 1014.8 hPa Calm   8 km/h 44 % 0 mm
14:41 26.2 °C 13.3 °C 1014.8 hPa NW 6.4 km/h 9.7 km/h 45 % 0 mm
14:46 26 °C 13.1 °C 1014.4 hPa NW 12.9 km/h 12.9 km/h 45 % 0 mm
14:51 25.8 °C 13.3 °C 1014.4 hPa NNE 3.2 km/h 14.5 km/h 46 % 0 mm
14:56 25.9 °C 13.4 °C 1014.4 hPa WSW 4.8 km/h 14.5 km/h 46 % 0 mm
15:01 26.1 °C 13.6 °C 1014.4 hPa SSW 3.2 km/h 14.5 km/h 46 % 0 mm
15:06 26.1 °C 13.2 °C 1014.4 hPa ESE 3.2 km/h 11.3 km/h 45 % 0 mm
15:11 26 °C 13.5 °C 1014.4 hPa North 3.2 km/h 11.3 km/h 46 % 0 mm
15:16 26.2 °C 13.7 °C 1014.1 hPa SSE 3.2 km/h 11.3 km/h 46 % 0 mm
15:21 26.3 °C 13.1 °C 1014.1 hPa Calm   9.7 km/h 44 % 0 mm
15:26 26.4 °C 12.8 °C 1013.8 hPa NNW 6.4 km/h 9.7 km/h 43 % 0 mm
15:31 26.2 °C 13.3 °C 1013.8 hPa SW 3.2 km/h 11.3 km/h 45 % 0 mm
15:36 26.4 °C 12.8 °C 1013.8 hPa NNW 3.2 km/h 11.3 km/h 43 % 0 mm
15:41 26.2 °C 13 °C 1013.8 hPa WSW 3.2 km/h 11.3 km/h 44 % 0 mm
15:46 26.6 °C 14 °C 1013.8 hPa Calm   9.7 km/h 46 % 0 mm
15:51 26.6 °C 13.3 °C 1013.8 hPa WSW 3.2 km/h 9.7 km/h 44 % 0 mm
15:56 26.5 °C 12.9 °C 1013.8 hPa WNW 3.2 km/h 9.7 km/h 43 % 0 mm
16:01 26.3 °C 12.4 °C 1013.4 hPa WNW 1.6 km/h 12.9 km/h 42 % 0 mm
16:06 26.2 °C 12.6 °C 1013.4 hPa NW 3.2 km/h 12.9 km/h 43 % 0 mm
16:09 26.2 °C 12.6 °C 1013.4 hPa NNW 8 km/h 12.9 km/h 43 % 0 mm
16:14 26.3 °C 12.7 °C 1013.4 hPa WNW 1.6 km/h 12.9 km/h 43 % 0 mm
16:19 26.6 °C 13.7 °C 1013.4 hPa SW 3.2 km/h 11.3 km/h 45 % 0 mm
16:24 26.7 °C 13.4 °C 1013.1 hPa SSW 6.4 km/h 11.3 km/h 44 % 0 mm
16:29 26.7 °C 12.7 °C 1013.1 hPa NW 3.2 km/h 14.5 km/h 42 % 0 mm
16:34 26.6 °C 13 °C 1013.1 hPa NW 4.8 km/h 14.5 km/h 43 % 0 mm
16:39 26.6 °C 12.6 °C 1013.1 hPa NNW 8 km/h 14.5 km/h 42 % 0 mm
16:44 26.5 °C 12.2 °C 1013.1 hPa Calm   11.3 km/h 41 % 0 mm
16:49 26.7 °C 12.4 °C 1012.8 hPa Calm   11.3 km/h 41 % 0 mm
16:54 26.8 °C 12.8 °C 1012.8 hPa West 3.2 km/h 11.3 km/h 42 % 0 mm
16:59 26.8 °C 13.5 °C 1012.8 hPa SSW 3.2 km/h 11.3 km/h 44 % 0 mm
17:04 26.9 °C 12.9 °C 1012.8 hPa South 1.6 km/h 8 km/h 42 % 0 mm
17:05 26.9 °C 12.9 °C 1012.8 hPa South 8 km/h 8 km/h 42 % 0 mm
17:10 27 °C 13 °C 1012.8 hPa SSW 1.6 km/h 8 km/h 42 % 0 mm
17:15 27.1 °C 13.1 °C 1012.8 hPa WSW 1.6 km/h 8 km/h 42 % 0 mm
17:20 27.1 °C 12.7 °C 1012.8 hPa SW 1.6 km/h 8 km/h 41 % 0 mm
17:25 27.1 °C 12.3 °C 1012.8 hPa West 1.6 km/h 6.4 km/h 40 % 0 mm
17:30 27.1 °C 12.3 °C 1012.8 hPa WNW 3.2 km/h 8 km/h 40 % 0 mm
17:35 26.9 °C 12.9 °C 1012.8 hPa SW 3.2 km/h 8 km/h 42 % 0 mm
17:40 26.8 °C 12.1 °C 1012.8 hPa WNW 3.2 km/h 9.7 km/h 40 % 0 mm
17:45 27 °C 13 °C 1012.4 hPa Calm   9.7 km/h 42 % 0 mm
17:50 26.9 °C 11.8 °C 1012.4 hPa WNW 1.6 km/h 9.7 km/h 39 % 0 mm
17:55 26.9 °C 11.8 °C 1012.4 hPa WNW 3.2 km/h 11.3 km/h 39 % 0 mm
18:00 26.8 °C 12.1 °C 1012.4 hPa NNW 3.2 km/h 11.3 km/h 40 % 0 mm
18:05 26.6 °C 11.5 °C 1012.4 hPa NW 1.6 km/h 11.3 km/h 39 % 0 mm
18:10 26.5 °C 11.8 °C 1012.4 hPa WSW 3.2 km/h 8 km/h 40 % 0 mm
18:15 26.6 °C 11.9 °C 1012.4 hPa Calm   8 km/h 40 % 0 mm
18:20 26.6 °C 11.9 °C 1012.4 hPa West 3.2 km/h 8 km/h 40 % 0 mm
18:25 26.8 °C 12.8 °C 1012.4 hPa Calm   6.4 km/h 42 % 0 mm
18:30 26.7 °C 12 °C 1012.4 hPa WSW 4.8 km/h 6.4 km/h 40 % 0 mm
18:35 26.5 °C 11.8 °C 1012.4 hPa Calm   6.4 km/h 40 % 0 mm
18:40 26.3 °C 11.6 °C 1012.4 hPa SW 3.2 km/h 6.4 km/h 40 % 0 mm
18:45 26.2 °C 11.5 °C 1012.4 hPa Calm   6.4 km/h 40 % 0 mm
18:50 26.2 °C 12.3 °C 1012.8 hPa Calm   6.4 km/h 42 % 0 mm
18:55 26.3 °C 12.4 °C 1012.8 hPa Calm   6.4 km/h 42 % 0 mm
19:00 26.3 °C 12 °C 1012.8 hPa Calm   3.2 km/h 41 % 0 mm
19:05 26 °C 11.7 °C 1012.8 hPa West 1.6 km/h 4.8 km/h 41 % 0 mm
19:10 25.9 °C 12 °C 1012.4 hPa Calm   4.8 km/h 42 % 0 mm
19:15 26 °C 12.1 °C 1012.8 hPa WSW 1.6 km/h 4.8 km/h 42 % 0 mm
19:20 26 °C 12.5 °C 1012.4 hPa Calm   3.2 km/h 43 % 0 mm
19:25 25.7 °C 12.2 °C 1012.4 hPa Calm   1.6 km/h 43 % 0 mm
19:30 25.1 °C 12.3 °C 1012.4 hPa WSW 1.6 km/h 1.6 km/h 45 % 0 mm
19:35 24.4 °C 12.4 °C 1012.4 hPa Calm   1.6 km/h 47 % 0 mm
19:40 23.9 °C 12.2 °C 1012.8 hPa Calm   1.6 km/h 48 % 0 mm
19:45 23.3 °C 12.3 °C 1012.8 hPa Calm   1.6 km/h 50 % 0 mm
19:50 22.7 °C 12.3 °C 1012.8 hPa Calm   1.6 km/h 52 % 0 mm
19:55 22.4 °C 12.1 °C 1012.8 hPa Calm   1.6 km/h 52 % 0 mm
20:00 22.1 °C 12.1 °C 1012.8 hPa Calm   1.6 km/h 53 % 0 mm
20:06 21.6 °C 12.7 °C 1012.8 hPa Calm   1.6 km/h 57 % 0 mm
20:11 21.2 °C 12.3 °C 1012.8 hPa Calm     57 % 0 mm
20:16 20.8 °C 12.7 °C 1012.8 hPa Calm     60 % 0 mm
20:21 20.4 °C 12.6 °C 1012.8 hPa Calm     61 % 0 mm
20:26 20.2 °C 12.7 °C 1012.8 hPa Calm     62 % 0 mm
20:31 20.1 °C 12.8 °C 1012.8 hPa Calm     63 % 0 mm
20:36 19.8 °C 13 °C 1012.8 hPa Calm   1.6 km/h 65 % 0 mm
20:41 19.7 °C 12.9 °C 1012.8 hPa Calm   1.6 km/h 65 % 0 mm
20:46 19.3 °C 12.6 °C 1012.8 hPa Calm   1.6 km/h 65 % 0 mm
20:51 19.1 °C 12.8 °C 1012.8 hPa Calm   1.6 km/h 67 % 0 mm
20:56 18.9 °C 12.9 °C 1012.8 hPa Calm   1.6 km/h 68 % 0 mm
21:01 18.7 °C 12.7 °C 1012.8 hPa Calm   1.6 km/h 68 % 0 mm
21:06 18.7 °C 13.1 °C 1012.8 hPa Calm     70 % 0 mm
21:11 18.6 °C 13 °C 1013.1 hPa Calm     70 % 0 mm
21:16 18.3 °C 13 °C 1013.1 hPa Calm     71 % 0 mm
21:21 18.1 °C 12.8 °C 1013.1 hPa Calm     71 % 0 mm
21:26 17.8 °C 12.7 °C 1013.1 hPa Calm     72 % 0 mm
21:31 17.6 °C 12.5 °C 1013.1 hPa Calm     72 % 0 mm
21:36 17.3 °C 12.4 °C 1013.1 hPa Calm     73 % 0 mm
21:41 17.1 °C 12.4 °C 1013.1 hPa Calm     74 % 0 mm
21:46 17 °C 12.9 °C 1013.4 hPa Calm     77 % 0 mm
21:51 17.2 °C 13.3 °C 1013.4 hPa Calm     78 % 0 mm
21:56 17.3 °C 13.4 °C 1013.4 hPa Calm     78 % 0 mm
22:01 17.2 °C 13.1 °C 1013.4 hPa Calm     77 % 0 mm
22:06 16.9 °C 13 °C 1013.4 hPa Calm     78 % 0 mm
22:11 16.8 °C 13.3 °C 1013.4 hPa Calm     80 % 0 mm
22:16 17 °C 13.7 °C 1013.4 hPa Calm   1.6 km/h 81 % 0 mm
22:21 17.1 °C 13.6 °C 1013.4 hPa Calm   1.6 km/h 80 % 0 mm
22:26 17 °C 13.5 °C 1013.4 hPa Calm   1.6 km/h 80 % 0 mm
22:31 16.8 °C 13.3 °C 1013.4 hPa Calm     80 % 0 mm
22:36 16.8 °C 13.5 °C 1013.4 hPa Calm     81 % 0 mm
22:41 16.7 °C 13.4 °C 1013.4 hPa Calm     81 % 0 mm
22:46 16.5 °C 13.2 °C 1013.8 hPa Calm     81 % 0 mm
22:51 16.4 °C 13.3 °C 1013.8 hPa Calm     82 % 0 mm
22:56 16.5 °C 13.4 °C 1013.4 hPa Calm     82 % 0 mm
23:01 16.3 °C 13.2 °C 1013.4 hPa Calm     82 % 0 mm
23:06 16.1 °C 13 °C 1013.4 hPa Calm     82 % 0 mm
23:12 15.9 °C 13 °C 1013.4 hPa Calm     83 % 0 mm
23:17 15.8 °C 12.9 °C 1013.4 hPa Calm     83 % 0 mm
23:22 15.7 °C 13 °C 1013.4 hPa Calm     84 % 0 mm
23:27 15.7 °C 13.2 °C 1013.4 hPa Calm     85 % 0 mm
23:32 15.6 °C 13.3 °C 1013.1 hPa Calm     86 % 0 mm
23:37 15.6 °C 13.3 °C 1013.1 hPa WSW 1.6 km/h   86 % 0 mm
23:42 15.7 °C 13.5 °C 1013.1 hPa Calm   1.6 km/h 87 % 0 mm
23:52 15.8 °C 13.6 °C 1013.1 hPa Calm   1.6 km/h 87 % 0 mm
23:57 15.8 °C 13.6 °C 1013.1 hPa Calm   1.6 km/h 87 % 0 mm
Spring, Texas: Villages of Bridgestone
Compliments of Weather Underground - 2.75 mb

Script developed by  Jim McMurry - jmcmurry@mwt.net Adapted for the template by  Wim van der Kuil - Leuven-Template.eu

You find our weather info also at:

UK Metoffice

WeatherCloud

Weather Underground

Mid-South Weather Network

AWEKAS

Citizen Weather Observer Program (CWOP)

HAMweather, WeatherForYou, PWS Weather

Equipment we use:

Weather-station
Davis Vantage Vue

Weather-program
Meteohub

Weather-server
Debian 7.9 x86 (Guest)

Provider
DreamHost

Davis Vantage Vue

Meteohub

Debian 7.9 x86 (Guest)

DreamHost